sensor_id;sensor_type;location;lat;lon;timestamp;P1;durP1;ratioP1;P2;durP2;ratioP2
66371;SDS011;53168;51.146;17.120;2023-05-10T00:00:16;8.20;;;4.20;;
66371;SDS011;53168;51.146;17.120;2023-05-10T00:03:09;8.40;;;4.30;;
66371;SDS011;53168;51.146;17.120;2023-05-10T00:05:43;8.40;;;4.70;;
66371;SDS011;53168;51.146;17.120;2023-05-10T00:08:16;8.30;;;4.10;;
66371;SDS011;53168;51.146;17.120;2023-05-10T00:10:49;9.00;;;4.50;;
66371;SDS011;53168;51.146;17.120;2023-05-10T00:13:23;8.60;;;4.20;;
66371;SDS011;53168;51.146;17.120;2023-05-10T00:15:56;10.00;;;4.70;;
66371;SDS011;53168;51.146;17.120;2023-05-10T00:18:30;6.80;;;3.60;;
66371;SDS011;53168;51.146;17.120;2023-05-10T00:21:03;7.40;;;3.30;;
66371;SDS011;53168;51.146;17.120;2023-05-10T00:23:37;7.60;;;4.10;;
66371;SDS011;53168;51.146;17.120;2023-05-10T00:26:10;8.20;;;4.30;;
66371;SDS011;53168;51.146;17.120;2023-05-10T00:28:44;8.70;;;5.00;;
66371;SDS011;53168;51.146;17.120;2023-05-10T00:31:17;8.50;;;4.20;;
66371;SDS011;53168;51.146;17.120;2023-05-10T00:33:50;9.70;;;5.00;;
66371;SDS011;53168;51.146;17.120;2023-05-10T00:36:24;7.80;;;4.90;;
66371;SDS011;53168;51.146;17.120;2023-05-10T00:38:58;9.10;;;4.40;;
66371;SDS011;53168;51.146;17.120;2023-05-10T00:41:31;7.00;;;3.40;;
66371;SDS011;53168;51.146;17.120;2023-05-10T00:44:05;8.50;;;3.20;;
66371;SDS011;53168;51.146;17.120;2023-05-10T00:46:38;8.90;;;3.60;;
66371;SDS011;53168;51.146;17.120;2023-05-10T00:49:11;8.40;;;3.90;;
66371;SDS011;53168;51.146;17.120;2023-05-10T00:51:45;10.80;;;4.70;;
66371;SDS011;53168;51.146;17.120;2023-05-10T00:54:18;6.60;;;3.70;;
66371;SDS011;53168;51.146;17.120;2023-05-10T00:56:52;10.40;;;4.40;;
66371;SDS011;53168;51.146;17.120;2023-05-10T00:59:27;8.10;;;4.60;;
66371;SDS011;53168;51.146;17.120;2023-05-10T01:02:02;7.70;;;4.40;;
66371;SDS011;53168;51.146;17.120;2023-05-10T01:04:36;10.30;;;5.10;;
66371;SDS011;53168;51.146;17.120;2023-05-10T01:07:11;8.80;;;4.30;;
66371;SDS011;53168;51.146;17.120;2023-05-10T01:09:44;8.50;;;4.70;;
66371;SDS011;53168;51.146;17.120;2023-05-10T01:12:18;9.30;;;4.60;;
66371;SDS011;53168;51.146;17.120;2023-05-10T01:14:52;9.50;;;4.00;;
66371;SDS011;53168;51.146;17.120;2023-05-10T01:17:26;9.20;;;5.10;;
66371;SDS011;53168;51.146;17.120;2023-05-10T01:20:00;7.80;;;4.00;;
66371;SDS011;53168;51.146;17.120;2023-05-10T01:22:46;10.40;;;4.30;;
66371;SDS011;53168;51.146;17.120;2023-05-10T01:29:13;8.40;;;4.60;;
66371;SDS011;53168;51.146;17.120;2023-05-10T01:32:21;7.40;;;4.20;;
66371;SDS011;53168;51.146;17.120;2023-05-10T01:35:06;7.20;;;4.50;;
66371;SDS011;53168;51.146;17.120;2023-05-10T01:37:46;8.60;;;4.70;;
66371;SDS011;53168;51.146;17.120;2023-05-10T01:40:32;10.10;;;4.80;;
66371;SDS011;53168;51.146;17.120;2023-05-10T01:43:19;8.50;;;4.00;;
66371;SDS011;53168;51.146;17.120;2023-05-10T01:46:02;8.90;;;5.10;;
66371;SDS011;53168;51.146;17.120;2023-05-10T01:48:47;7.70;;;4.40;;
66371;SDS011;53168;51.146;17.120;2023-05-10T01:51:27;10.10;;;4.70;;
66371;SDS011;53168;51.146;17.120;2023-05-10T01:54:08;9.00;;;5.10;;
66371;SDS011;53168;51.146;17.120;2023-05-10T01:56:45;10.80;;;5.70;;
66371;SDS011;53168;51.146;17.120;2023-05-10T01:59:29;8.70;;;4.30;;
66371;SDS011;53168;51.146;17.120;2023-05-10T02:02:07;13.50;;;5.20;;
66371;SDS011;53168;51.146;17.120;2023-05-10T02:04:43;8.20;;;4.30;;
66371;SDS011;53168;51.146;17.120;2023-05-10T02:07:17;7.90;;;4.00;;
66371;SDS011;53168;51.146;17.120;2023-05-10T02:09:53;10.90;;;5.30;;
66371;SDS011;53168;51.146;17.120;2023-05-10T02:12:30;10.50;;;4.70;;
66371;SDS011;53168;51.146;17.120;2023-05-10T02:15:08;10.10;;;5.00;;
66371;SDS011;53168;51.146;17.120;2023-05-10T02:17:44;7.80;;;4.70;;
66371;SDS011;53168;51.146;17.120;2023-05-10T02:20:20;9.70;;;4.60;;
66371;SDS011;53168;51.146;17.120;2023-05-10T02:22:55;8.90;;;4.60;;
66371;SDS011;53168;51.146;17.120;2023-05-10T02:25:30;11.40;;;4.70;;
66371;SDS011;53168;51.146;17.120;2023-05-10T02:28:06;9.40;;;4.70;;
66371;SDS011;53168;51.146;17.120;2023-05-10T02:30:41;9.00;;;4.80;;
66371;SDS011;53168;51.146;17.120;2023-05-10T02:33:15;7.70;;;4.60;;
66371;SDS011;53168;51.146;17.120;2023-05-10T02:35:51;9.40;;;4.60;;
66371;SDS011;53168;51.146;17.120;2023-05-10T02:38:26;8.80;;;4.00;;
66371;SDS011;53168;51.146;17.120;2023-05-10T02:41:02;8.40;;;4.50;;
66371;SDS011;53168;51.146;17.120;2023-05-10T02:43:40;9.40;;;5.00;;
66371;SDS011;53168;51.146;17.120;2023-05-10T02:46:15;9.80;;;5.30;;
66371;SDS011;53168;51.146;17.120;2023-05-10T02:48:49;10.00;;;5.30;;
66371;SDS011;53168;51.146;17.120;2023-05-10T02:51:25;9.50;;;4.70;;
66371;SDS011;53168;51.146;17.120;2023-05-10T02:54:09;7.90;;;4.20;;
66371;SDS011;53168;51.146;17.120;2023-05-10T02:56:51;9.40;;;5.00;;
66371;SDS011;53168;51.146;17.120;2023-05-10T02:59:28;8.60;;;4.80;;
66371;SDS011;53168;51.146;17.120;2023-05-10T03:02:03;10.10;;;4.60;;
66371;SDS011;53168;51.146;17.120;2023-05-10T03:04:36;8.50;;;4.70;;
66371;SDS011;53168;51.146;17.120;2023-05-10T03:07:10;9.90;;;4.70;;
66371;SDS011;53168;51.146;17.120;2023-05-10T03:09:43;9.50;;;4.70;;
66371;SDS011;53168;51.146;17.120;2023-05-10T03:12:21;9.60;;;4.90;;
66371;SDS011;53168;51.146;17.120;2023-05-10T03:15:10;8.80;;;4.40;;
66371;SDS011;53168;51.146;17.120;2023-05-10T03:17:54;9.90;;;5.50;;
66371;SDS011;53168;51.146;17.120;2023-05-10T03:20:38;10.30;;;4.90;;
66371;SDS011;53168;51.146;17.120;2023-05-10T03:23:22;8.40;;;4.90;;
66371;SDS011;53168;51.146;17.120;2023-05-10T03:26:01;8.60;;;4.60;;
66371;SDS011;53168;51.146;17.120;2023-05-10T03:28:36;9.70;;;4.30;;
66371;SDS011;53168;51.146;17.120;2023-05-10T03:31:10;8.30;;;4.40;;
66371;SDS011;53168;51.146;17.120;2023-05-10T03:33:52;8.60;;;4.10;;
66371;SDS011;53168;51.146;17.120;2023-05-10T03:36:27;8.90;;;4.40;;
66371;SDS011;53168;51.146;17.120;2023-05-10T03:39:01;9.50;;;5.00;;
66371;SDS011;53168;51.146;17.120;2023-05-10T03:41:34;9.10;;;4.60;;
66371;SDS011;53168;51.146;17.120;2023-05-10T03:44:07;6.40;;;3.60;;
66371;SDS011;53168;51.146;17.120;2023-05-10T03:46:40;10.00;;;5.30;;
66371;SDS011;53168;51.146;17.120;2023-05-10T03:49:14;7.90;;;4.30;;
66371;SDS011;53168;51.146;17.120;2023-05-10T03:51:47;10.00;;;5.10;;
66371;SDS011;53168;51.146;17.120;2023-05-10T03:54:24;9.30;;;4.90;;
66371;SDS011;53168;51.146;17.120;2023-05-10T03:56:58;10.60;;;5.20;;
66371;SDS011;53168;51.146;17.120;2023-05-10T03:59:33;10.60;;;5.20;;
66371;SDS011;53168;51.146;17.120;2023-05-10T04:02:06;10.00;;;5.10;;
66371;SDS011;53168;51.146;17.120;2023-05-10T04:04:39;8.20;;;4.60;;
66371;SDS011;53168;51.146;17.120;2023-05-10T04:07:13;9.10;;;4.90;;
66371;SDS011;53168;51.146;17.120;2023-05-10T04:09:46;7.60;;;3.70;;
66371;SDS011;53168;51.146;17.120;2023-05-10T04:12:19;9.30;;;5.30;;
66371;SDS011;53168;51.146;17.120;2023-05-10T04:14:53;8.30;;;4.90;;
66371;SDS011;53168;51.146;17.120;2023-05-10T04:17:26;9.00;;;5.20;;
66371;SDS011;53168;51.146;17.120;2023-05-10T04:19:59;9.70;;;4.80;;
66371;SDS011;53168;51.146;17.120;2023-05-10T04:22:34;10.80;;;5.80;;
66371;SDS011;53168;51.146;17.120;2023-05-10T04:25:10;9.50;;;5.50;;
66371;SDS011;53168;51.146;17.120;2023-05-10T04:27:43;9.30;;;5.20;;
66371;SDS011;53168;51.146;17.120;2023-05-10T04:30:17;9.40;;;5.20;;
66371;SDS011;53168;51.146;17.120;2023-05-10T04:32:50;8.70;;;5.30;;
66371;SDS011;53168;51.146;17.120;2023-05-10T04:35:24;10.20;;;5.00;;
66371;SDS011;53168;51.146;17.120;2023-05-10T04:37:57;12.20;;;5.60;;
66371;SDS011;53168;51.146;17.120;2023-05-10T04:40:30;7.80;;;5.20;;
66371;SDS011;53168;51.146;17.120;2023-05-10T04:43:04;11.80;;;5.30;;
66371;SDS011;53168;51.146;17.120;2023-05-10T04:45:37;9.40;;;5.50;;
66371;SDS011;53168;51.146;17.120;2023-05-10T04:48:10;9.50;;;5.20;;
66371;SDS011;53168;51.146;17.120;2023-05-10T04:50:44;10.40;;;5.60;;
66371;SDS011;53168;51.146;17.120;2023-05-10T04:53:17;9.90;;;5.10;;
66371;SDS011;53168;51.146;17.120;2023-05-10T04:55:50;8.00;;;4.80;;
66371;SDS011;53168;51.146;17.120;2023-05-10T04:58:24;9.90;;;5.50;;
66371;SDS011;53168;51.146;17.120;2023-05-10T05:00:59;8.60;;;5.90;;
66371;SDS011;53168;51.146;17.120;2023-05-10T05:03:38;8.50;;;4.50;;
66371;SDS011;53168;51.146;17.120;2023-05-10T05:06:11;9.10;;;5.00;;
66371;SDS011;53168;51.146;17.120;2023-05-10T05:08:45;9.50;;;5.50;;
66371;SDS011;53168;51.146;17.120;2023-05-10T05:11:20;9.20;;;5.20;;
66371;SDS011;53168;51.146;17.120;2023-05-10T05:13:53;10.40;;;5.40;;
66371;SDS011;53168;51.146;17.120;2023-05-10T05:16:26;5.70;;;3.30;;
66371;SDS011;53168;51.146;17.120;2023-05-10T05:19:02;9.10;;;4.80;;
66371;SDS011;53168;51.146;17.120;2023-05-10T05:21:35;8.50;;;4.60;;
66371;SDS011;53168;51.146;17.120;2023-05-10T05:24:09;8.20;;;5.00;;
66371;SDS011;53168;51.146;17.120;2023-05-10T05:26:42;8.30;;;5.20;;
66371;SDS011;53168;51.146;17.120;2023-05-10T05:29:15;8.80;;;4.80;;
66371;SDS011;53168;51.146;17.120;2023-05-10T05:31:49;7.90;;;5.50;;
66371;SDS011;53168;51.146;17.120;2023-05-10T05:34:25;8.00;;;4.70;;
66371;SDS011;53168;51.146;17.120;2023-05-10T05:36:58;8.10;;;5.00;;
66371;SDS011;53168;51.146;17.120;2023-05-10T05:39:31;9.50;;;5.20;;
66371;SDS011;53168;51.146;17.120;2023-05-10T05:42:04;8.40;;;5.20;;
66371;SDS011;53168;51.146;17.120;2023-05-10T05:44:38;8.00;;;4.60;;
66371;SDS011;53168;51.146;17.120;2023-05-10T05:47:11;8.70;;;4.80;;
66371;SDS011;53168;51.146;17.120;2023-05-10T05:49:44;7.60;;;4.40;;
66371;SDS011;53168;51.146;17.120;2023-05-10T05:52:18;7.80;;;4.70;;
66371;SDS011;53168;51.146;17.120;2023-05-10T05:54:51;7.90;;;4.90;;
66371;SDS011;53168;51.146;17.120;2023-05-10T05:57:24;7.40;;;5.30;;
66371;SDS011;53168;51.146;17.120;2023-05-10T05:59:58;7.70;;;4.60;;
66371;SDS011;53168;51.146;17.120;2023-05-10T06:02:41;7.60;;;4.60;;
66371;SDS011;53168;51.146;17.120;2023-05-10T06:05:15;9.10;;;5.10;;
66371;SDS011;53168;51.146;17.120;2023-05-10T06:07:49;7.90;;;4.30;;
66371;SDS011;53168;51.146;17.120;2023-05-10T06:10:23;8.10;;;4.70;;
66371;SDS011;53168;51.146;17.120;2023-05-10T06:12:57;7.90;;;4.70;;
66371;SDS011;53168;51.146;17.120;2023-05-10T06:15:30;9.30;;;4.70;;
66371;SDS011;53168;51.146;17.120;2023-05-10T06:18:04;7.20;;;4.30;;
66371;SDS011;53168;51.146;17.120;2023-05-10T06:20:37;8.40;;;4.20;;
66371;SDS011;53168;51.146;17.120;2023-05-10T06:23:12;8.10;;;4.50;;
66371;SDS011;53168;51.146;17.120;2023-05-10T06:25:45;6.70;;;4.30;;
66371;SDS011;53168;51.146;17.120;2023-05-10T06:28:18;8.20;;;3.90;;
66371;SDS011;53168;51.146;17.120;2023-05-10T06:30:52;7.40;;;4.40;;
66371;SDS011;53168;51.146;17.120;2023-05-10T06:33:25;6.90;;;4.30;;
66371;SDS011;53168;51.146;17.120;2023-05-10T06:35:58;6.50;;;4.30;;
66371;SDS011;53168;51.146;17.120;2023-05-10T06:38:32;8.40;;;4.50;;
66371;SDS011;53168;51.146;17.120;2023-05-10T06:41:06;7.50;;;4.00;;
66371;SDS011;53168;51.146;17.120;2023-05-10T06:43:39;7.20;;;4.20;;
66371;SDS011;53168;51.146;17.120;2023-05-10T06:46:34;8.50;;;4.50;;
66371;SDS011;53168;51.146;17.120;2023-05-10T06:49:07;5.90;;;5.30;;
66371;SDS011;53168;51.146;17.120;2023-05-10T06:51:41;6.10;;;3.90;;
66371;SDS011;53168;51.146;17.120;2023-05-10T06:54:14;7.60;;;4.00;;
66371;SDS011;53168;51.146;17.120;2023-05-10T06:56:48;7.90;;;4.10;;
66371;SDS011;53168;51.146;17.120;2023-05-10T06:59:21;6.90;;;4.10;;
66371;SDS011;53168;51.146;17.120;2023-05-10T07:01:54;6.90;;;3.70;;
66371;SDS011;53168;51.146;17.120;2023-05-10T07:04:28;6.40;;;3.80;;
66371;SDS011;53168;51.146;17.120;2023-05-10T07:07:01;6.20;;;3.30;;
66371;SDS011;53168;51.146;17.120;2023-05-10T07:09:34;7.40;;;4.00;;
66371;SDS011;53168;51.146;17.120;2023-05-10T07:12:07;4.70;;;3.10;;
66371;SDS011;53168;51.146;17.120;2023-05-10T07:14:44;6.30;;;3.40;;
66371;SDS011;53168;51.146;17.120;2023-05-10T07:17:17;5.50;;;3.30;;
66371;SDS011;53168;51.146;17.120;2023-05-10T07:19:50;4.90;;;2.80;;
66371;SDS011;53168;51.146;17.120;2023-05-10T07:22:23;7.70;;;3.40;;
66371;SDS011;53168;51.146;17.120;2023-05-10T07:24:57;6.50;;;3.80;;
66371;SDS011;53168;51.146;17.120;2023-05-10T07:27:30;7.70;;;3.20;;
66371;SDS011;53168;51.146;17.120;2023-05-10T07:30:04;5.40;;;3.50;;
66371;SDS011;53168;51.146;17.120;2023-05-10T07:32:38;6.00;;;3.60;;
66371;SDS011;53168;51.146;17.120;2023-05-10T07:35:12;6.10;;;3.50;;
66371;SDS011;53168;51.146;17.120;2023-05-10T07:37:46;5.20;;;3.60;;
66371;SDS011;53168;51.146;17.120;2023-05-10T07:40:19;6.80;;;3.10;;
66371;SDS011;53168;51.146;17.120;2023-05-10T07:42:53;5.70;;;3.10;;
66371;SDS011;53168;51.146;17.120;2023-05-10T07:45:26;8.50;;;3.60;;
66371;SDS011;53168;51.146;17.120;2023-05-10T07:47:59;6.70;;;4.30;;
66371;SDS011;53168;51.146;17.120;2023-05-10T07:50:32;7.70;;;3.80;;
66371;SDS011;53168;51.146;17.120;2023-05-10T07:53:06;5.80;;;3.20;;
66371;SDS011;53168;51.146;17.120;2023-05-10T07:55:39;4.80;;;2.70;;
66371;SDS011;53168;51.146;17.120;2023-05-10T07:58:12;5.80;;;3.00;;
66371;SDS011;53168;51.146;17.120;2023-05-10T08:00:45;6.20;;;3.40;;
66371;SDS011;53168;51.146;17.120;2023-05-10T08:03:19;6.00;;;3.60;;
66371;SDS011;53168;51.146;17.120;2023-05-10T08:05:52;6.40;;;3.40;;
66371;SDS011;53168;51.146;17.120;2023-05-10T08:08:26;7.50;;;3.90;;
66371;SDS011;53168;51.146;17.120;2023-05-10T08:10:59;5.60;;;3.20;;
66371;SDS011;53168;51.146;17.120;2023-05-10T08:13:33;6.40;;;3.60;;
66371;SDS011;53168;51.146;17.120;2023-05-10T08:16:06;7.00;;;4.00;;
66371;SDS011;53168;51.146;17.120;2023-05-10T08:18:40;6.00;;;3.50;;
66371;SDS011;53168;51.146;17.120;2023-05-10T08:21:15;8.00;;;3.90;;
66371;SDS011;53168;51.146;17.120;2023-05-10T08:23:48;6.50;;;3.70;;
66371;SDS011;53168;51.146;17.120;2023-05-10T08:26:21;6.70;;;3.60;;
66371;SDS011;53168;51.146;17.120;2023-05-10T08:28:55;9.30;;;4.00;;
66371;SDS011;53168;51.146;17.120;2023-05-10T08:31:28;6.70;;;3.90;;
66371;SDS011;53168;51.146;17.120;2023-05-10T08:34:01;5.20;;;3.40;;
66371;SDS011;53168;51.146;17.120;2023-05-10T08:39:08;6.60;;;3.50;;
66371;SDS011;53168;51.146;17.120;2023-05-10T08:42:01;6.50;;;3.60;;
66371;SDS011;53168;51.146;17.120;2023-05-10T08:44:36;6.90;;;3.90;;
66371;SDS011;53168;51.146;17.120;2023-05-10T08:47:10;6.40;;;3.70;;
66371;SDS011;53168;51.146;17.120;2023-05-10T08:49:48;6.70;;;3.80;;
66371;SDS011;53168;51.146;17.120;2023-05-10T08:52:22;5.30;;;3.60;;
66371;SDS011;53168;51.146;17.120;2023-05-10T08:54:57;6.50;;;3.50;;
66371;SDS011;53168;51.146;17.120;2023-05-10T08:57:31;6.40;;;3.60;;
66371;SDS011;53168;51.146;17.120;2023-05-10T09:00:05;4.80;;;3.00;;
66371;SDS011;53168;51.146;17.120;2023-05-10T09:02:40;5.60;;;3.50;;
66371;SDS011;53168;51.146;17.120;2023-05-10T09:05:16;5.20;;;3.20;;
66371;SDS011;53168;51.146;17.120;2023-05-10T09:07:50;6.50;;;3.10;;
66371;SDS011;53168;51.146;17.120;2023-05-10T09:10:24;4.60;;;2.90;;
66371;SDS011;53168;51.146;17.120;2023-05-10T09:12:59;5.00;;;3.10;;
66371;SDS011;53168;51.146;17.120;2023-05-10T09:15:32;4.20;;;2.60;;
66371;SDS011;53168;51.146;17.120;2023-05-10T09:18:06;4.30;;;2.70;;
66371;SDS011;53168;51.146;17.120;2023-05-10T09:20:39;6.10;;;2.80;;
66371;SDS011;53168;51.146;17.120;2023-05-10T09:23:13;9.10;;;3.10;;
66371;SDS011;53168;51.146;17.120;2023-05-10T09:25:46;9.10;;;3.20;;
66371;SDS011;53168;51.146;17.120;2023-05-10T09:28:20;5.60;;;3.30;;
66371;SDS011;53168;51.146;17.120;2023-05-10T09:30:55;5.30;;;3.10;;
66371;SDS011;53168;51.146;17.120;2023-05-10T09:33:29;5.60;;;3.40;;
66371;SDS011;53168;51.146;17.120;2023-05-10T09:36:15;5.50;;;3.10;;
66371;SDS011;53168;51.146;17.120;2023-05-10T09:38:49;6.30;;;3.20;;
66371;SDS011;53168;51.146;17.120;2023-05-10T09:41:24;4.80;;;3.00;;
66371;SDS011;53168;51.146;17.120;2023-05-10T09:43:57;5.80;;;3.00;;
66371;SDS011;53168;51.146;17.120;2023-05-10T09:46:32;5.50;;;2.90;;
66371;SDS011;53168;51.146;17.120;2023-05-10T09:49:08;6.00;;;3.50;;
66371;SDS011;53168;51.146;17.120;2023-05-10T09:51:45;6.00;;;3.60;;
66371;SDS011;53168;51.146;17.120;2023-05-10T09:54:19;5.00;;;3.40;;
66371;SDS011;53168;51.146;17.120;2023-05-10T09:56:54;5.20;;;3.00;;
66371;SDS011;53168;51.146;17.120;2023-05-10T09:59:27;5.30;;;2.60;;
66371;SDS011;53168;51.146;17.120;2023-05-10T10:02:01;5.40;;;2.80;;
66371;SDS011;53168;51.146;17.120;2023-05-10T10:04:40;6.00;;;3.00;;
66371;SDS011;53168;51.146;17.120;2023-05-10T10:07:13;8.10;;;3.00;;
66371;SDS011;53168;51.146;17.120;2023-05-10T10:09:54;6.20;;;3.30;;
66371;SDS011;53168;51.146;17.120;2023-05-10T10:12:28;5.20;;;3.10;;
66371;SDS011;53168;51.146;17.120;2023-05-10T10:15:02;6.30;;;3.10;;
66371;SDS011;53168;51.146;17.120;2023-05-10T10:17:38;5.90;;;3.10;;
66371;SDS011;53168;51.146;17.120;2023-05-10T10:20:13;6.10;;;3.00;;
66371;SDS011;53168;51.146;17.120;2023-05-10T10:22:48;5.50;;;3.30;;
66371;SDS011;53168;51.146;17.120;2023-05-10T10:25:21;6.30;;;3.40;;
66371;SDS011;53168;51.146;17.120;2023-05-10T10:28:07;5.80;;;2.70;;
66371;SDS011;53168;51.146;17.120;2023-05-10T10:30:49;6.10;;;2.60;;
66371;SDS011;53168;51.146;17.120;2023-05-10T10:33:43;5.70;;;2.70;;
66371;SDS011;53168;51.146;17.120;2023-05-10T10:36:28;4.70;;;2.80;;
66371;SDS011;53168;51.146;17.120;2023-05-10T10:39:10;10.00;;;3.00;;
66371;SDS011;53168;51.146;17.120;2023-05-10T10:41:52;6.50;;;3.20;;
66371;SDS011;53168;51.146;17.120;2023-05-10T10:44:35;4.80;;;3.00;;
66371;SDS011;53168;51.146;17.120;2023-05-10T10:47:22;5.50;;;2.80;;
66371;SDS011;53168;51.146;17.120;2023-05-10T10:50:07;5.40;;;2.70;;
66371;SDS011;53168;51.146;17.120;2023-05-10T10:52:44;4.10;;;2.60;;
66371;SDS011;53168;51.146;17.120;2023-05-10T10:55:20;5.00;;;2.30;;
66371;SDS011;53168;51.146;17.120;2023-05-10T10:57:56;5.70;;;3.00;;
66371;SDS011;53168;51.146;17.120;2023-05-10T11:00:33;5.90;;;2.60;;
66371;SDS011;53168;51.146;17.120;2023-05-10T11:03:08;6.60;;;3.00;;
66371;SDS011;53168;51.146;17.120;2023-05-10T11:05:44;6.00;;;3.30;;
66371;SDS011;53168;51.146;17.120;2023-05-10T11:08:25;6.50;;;3.20;;
66371;SDS011;53168;51.146;17.120;2023-05-10T11:11:07;5.30;;;2.90;;
66371;SDS011;53168;51.146;17.120;2023-05-10T11:13:42;5.20;;;3.30;;
66371;SDS011;53168;51.146;17.120;2023-05-10T11:16:21;6.20;;;3.10;;
66371;SDS011;53168;51.146;17.120;2023-05-10T11:19:00;8.30;;;2.80;;
66371;SDS011;53168;51.146;17.120;2023-05-10T11:21:46;5.10;;;2.70;;
66371;SDS011;53168;51.146;17.120;2023-05-10T11:24:21;7.30;;;3.20;;
66371;SDS011;53168;51.146;17.120;2023-05-10T11:26:58;5.10;;;2.90;;
66371;SDS011;53168;51.146;17.120;2023-05-10T11:29:32;6.40;;;3.50;;
66371;SDS011;53168;51.146;17.120;2023-05-10T11:32:06;5.80;;;3.20;;
66371;SDS011;53168;51.146;17.120;2023-05-10T11:34:39;6.00;;;3.20;;
66371;SDS011;53168;51.146;17.120;2023-05-10T11:37:12;4.60;;;3.10;;
66371;SDS011;53168;51.146;17.120;2023-05-10T11:39:47;5.40;;;2.60;;
66371;SDS011;53168;51.146;17.120;2023-05-10T11:42:21;4.80;;;2.80;;
66371;SDS011;53168;51.146;17.120;2023-05-10T11:44:54;5.20;;;3.00;;
66371;SDS011;53168;51.146;17.120;2023-05-10T11:47:27;5.00;;;2.40;;
66371;SDS011;53168;51.146;17.120;2023-05-10T11:50:01;5.20;;;2.70;;
66371;SDS011;53168;51.146;17.120;2023-05-10T11:52:38;4.80;;;2.90;;
66371;SDS011;53168;51.146;17.120;2023-05-10T11:55:11;5.80;;;2.80;;
66371;SDS011;53168;51.146;17.120;2023-05-10T11:57:45;6.60;;;2.70;;
66371;SDS011;53168;51.146;17.120;2023-05-10T12:00:18;5.40;;;2.90;;
66371;SDS011;53168;51.146;17.120;2023-05-10T12:02:52;4.60;;;2.50;;
66371;SDS011;53168;51.146;17.120;2023-05-10T12:05:26;5.40;;;2.20;;
66371;SDS011;53168;51.146;17.120;2023-05-10T12:08:13;4.60;;;2.50;;
66371;SDS011;53168;51.146;17.120;2023-05-10T12:10:47;6.60;;;3.00;;
66371;SDS011;53168;51.146;17.120;2023-05-10T12:13:21;4.60;;;2.20;;
66371;SDS011;53168;51.146;17.120;2023-05-10T12:15:56;5.90;;;2.60;;
66371;SDS011;53168;51.146;17.120;2023-05-10T12:18:31;6.40;;;2.50;;
66371;SDS011;53168;51.146;17.120;2023-05-10T12:21:05;5.10;;;2.50;;
66371;SDS011;53168;51.146;17.120;2023-05-10T12:23:41;4.00;;;2.70;;
66371;SDS011;53168;51.146;17.120;2023-05-10T12:26:16;4.70;;;2.60;;
66371;SDS011;53168;51.146;17.120;2023-05-10T12:28:50;4.60;;;2.80;;
66371;SDS011;53168;51.146;17.120;2023-05-10T12:31:52;4.20;;;1.50;;
66371;SDS011;53168;51.146;17.120;2023-05-10T12:34:30;3.80;;;1.90;;
66371;SDS011;53168;51.146;17.120;2023-05-10T12:37:04;7.20;;;2.40;;
66371;SDS011;53168;51.146;17.120;2023-05-10T12:39:41;3.60;;;2.00;;
66371;SDS011;53168;51.146;17.120;2023-05-10T12:42:16;4.80;;;2.60;;
66371;SDS011;53168;51.146;17.120;2023-05-10T12:44:49;4.30;;;2.40;;
66371;SDS011;53168;51.146;17.120;2023-05-10T12:47:25;5.70;;;2.40;;
66371;SDS011;53168;51.146;17.120;2023-05-10T12:49:59;5.30;;;2.60;;
66371;SDS011;53168;51.146;17.120;2023-05-10T12:52:32;4.60;;;2.50;;
66371;SDS011;53168;51.146;17.120;2023-05-10T12:55:06;5.40;;;2.40;;
66371;SDS011;53168;51.146;17.120;2023-05-10T12:57:40;5.40;;;2.20;;
66371;SDS011;53168;51.146;17.120;2023-05-10T13:00:15;6.30;;;2.30;;
66371;SDS011;53168;51.146;17.120;2023-05-10T13:02:49;6.00;;;2.50;;
66371;SDS011;53168;51.146;17.120;2023-05-10T13:05:22;5.60;;;2.30;;
66371;SDS011;53168;51.146;17.120;2023-05-10T13:07:55;3.60;;;2.00;;
66371;SDS011;53168;51.146;17.120;2023-05-10T13:10:29;4.70;;;2.60;;
66371;SDS011;53168;51.146;17.120;2023-05-10T13:13:02;5.30;;;2.30;;
66371;SDS011;53168;51.146;17.120;2023-05-10T13:15:36;3.80;;;2.40;;
66371;SDS011;53168;51.146;17.120;2023-05-10T13:18:09;4.40;;;2.00;;
66371;SDS011;53168;51.146;17.120;2023-05-10T13:20:42;3.60;;;1.80;;
66371;SDS011;53168;51.146;17.120;2023-05-10T13:23:15;4.00;;;1.90;;
66371;SDS011;53168;51.146;17.120;2023-05-10T13:25:48;3.60;;;2.00;;
66371;SDS011;53168;51.146;17.120;2023-05-10T13:28:22;5.00;;;2.10;;
66371;SDS011;53168;51.146;17.120;2023-05-10T13:31:04;4.60;;;1.90;;
66371;SDS011;53168;51.146;17.120;2023-05-10T13:33:38;3.40;;;2.00;;
66371;SDS011;53168;51.146;17.120;2023-05-10T13:36:11;8.00;;;2.10;;
66371;SDS011;53168;51.146;17.120;2023-05-10T13:38:44;4.40;;;2.00;;
66371;SDS011;53168;51.146;17.120;2023-05-10T13:41:17;3.50;;;1.90;;
66371;SDS011;53168;51.146;17.120;2023-05-10T13:43:51;5.10;;;2.10;;
66371;SDS011;53168;51.146;17.120;2023-05-10T13:46:24;3.90;;;1.80;;
66371;SDS011;53168;51.146;17.120;2023-05-10T13:48:57;3.80;;;1.90;;
66371;SDS011;53168;51.146;17.120;2023-05-10T13:51:30;4.90;;;2.00;;
66371;SDS011;53168;51.146;17.120;2023-05-10T13:54:04;3.10;;;1.70;;
66371;SDS011;53168;51.146;17.120;2023-05-10T13:56:37;7.10;;;2.10;;
66371;SDS011;53168;51.146;17.120;2023-05-10T13:59:11;4.70;;;2.40;;
66371;SDS011;53168;51.146;17.120;2023-05-10T14:01:44;4.40;;;2.10;;
66371;SDS011;53168;51.146;17.120;2023-05-10T14:04:17;6.70;;;2.10;;
66371;SDS011;53168;51.146;17.120;2023-05-10T14:06:50;3.80;;;1.90;;
66371;SDS011;53168;51.146;17.120;2023-05-10T14:09:24;4.70;;;2.60;;
66371;SDS011;53168;51.146;17.120;2023-05-10T14:11:57;3.60;;;1.90;;
66371;SDS011;53168;51.146;17.120;2023-05-10T14:14:30;3.60;;;2.10;;
66371;SDS011;53168;51.146;17.120;2023-05-10T14:17:03;4.60;;;2.00;;
66371;SDS011;53168;51.146;17.120;2023-05-10T14:19:38;3.00;;;1.80;;
66371;SDS011;53168;51.146;17.120;2023-05-10T14:22:12;4.20;;;1.90;;
66371;SDS011;53168;51.146;17.120;2023-05-10T14:24:45;3.70;;;1.80;;
66371;SDS011;53168;51.146;17.120;2023-05-10T14:27:18;3.20;;;1.80;;
66371;SDS011;53168;51.146;17.120;2023-05-10T14:29:51;4.50;;;2.20;;
66371;SDS011;53168;51.146;17.120;2023-05-10T14:32:25;5.90;;;2.20;;
66371;SDS011;53168;51.146;17.120;2023-05-10T14:34:58;3.50;;;1.80;;
66371;SDS011;53168;51.146;17.120;2023-05-10T14:37:32;3.30;;;1.70;;
66371;SDS011;53168;51.146;17.120;2023-05-10T14:40:07;3.70;;;2.10;;
66371;SDS011;53168;51.146;17.120;2023-05-10T14:42:43;4.90;;;2.10;;
66371;SDS011;53168;51.146;17.120;2023-05-10T14:45:16;3.60;;;2.00;;
66371;SDS011;53168;51.146;17.120;2023-05-10T14:47:49;4.50;;;2.10;;
66371;SDS011;53168;51.146;17.120;2023-05-10T14:50:23;4.20;;;2.00;;
66371;SDS011;53168;51.146;17.120;2023-05-10T14:53:06;5.50;;;1.80;;
66371;SDS011;53168;51.146;17.120;2023-05-10T14:55:40;4.00;;;1.90;;
66371;SDS011;53168;51.146;17.120;2023-05-10T14:58:13;4.80;;;1.90;;
66371;SDS011;53168;51.146;17.120;2023-05-10T15:00:46;4.30;;;2.10;;
66371;SDS011;53168;51.146;17.120;2023-05-10T15:03:20;3.90;;;1.80;;
66371;SDS011;53168;51.146;17.120;2023-05-10T15:05:54;6.00;;;1.90;;
66371;SDS011;53168;51.146;17.120;2023-05-10T15:08:28;3.70;;;1.90;;
66371;SDS011;53168;51.146;17.120;2023-05-10T15:11:01;8.10;;;2.20;;
66371;SDS011;53168;51.146;17.120;2023-05-10T15:13:34;4.10;;;1.70;;
66371;SDS011;53168;51.146;17.120;2023-05-10T15:16:07;4.20;;;1.90;;
66371;SDS011;53168;51.146;17.120;2023-05-10T15:18:41;4.20;;;2.20;;
66371;SDS011;53168;51.146;17.120;2023-05-10T15:21:14;3.60;;;1.70;;
66371;SDS011;53168;51.146;17.120;2023-05-10T15:23:47;4.20;;;2.00;;
66371;SDS011;53168;51.146;17.120;2023-05-10T15:26:20;4.40;;;1.80;;